^^
Meteo Knjazevac Station Historical Data
Daily Summary for May 7, 2021 Units:  Metric    English   Both
Daily Weekly Monthly Yearly Custom
  High: Low: Average:
Temperature: 13.5 °C 10.4 °C 11.6 °C
Dew Point: 10.7 °C 7.8 °C 9.1 °C
Humidity: 90% 77% 85%
Wind Speed: 12.9km/h 0km/h 5.8km/h
Wind Gust: 35.4km/h - -
Wind- - East
Pressure: 1023.2 hPa 1021.2 hPa -
Precipitation: 0.76 mm    
Historical Graphs
 
 
Tabular Data for May 7, 2021
Time Temperature Dew Point Pressure Wind Wind Speed Wind Gust Humidity Rainfall Rate (Hourly) solar Conditions
00:00 11.1 °C 8.3 °C 1022.2 hPa East 1.6 km/h 3.2 km/h 83% 0 mm 0 W/m2
00:10 10.9 °C 8.1 °C 1021.9 hPa Calm   3.2 km/h 83% 0 mm 0 W/m2
00:20 10.7 °C 8.1 °C 1022.2 hPa NW 1.6 km/h 3.2 km/h 84% 0 mm 0 W/m2
00:30 10.6 °C 8 °C 1021.9 hPa North 1.6 km/h 3.2 km/h 84% 0 mm 0 W/m2
00:40 10.6 °C 8 °C 1021.9 hPa Calm   3.2 km/h 84% 0 mm 0 W/m2
00:50 10.4 °C 7.8 °C 1022.2 hPa ENE 1.6 km/h 4.8 km/h 84% 0 mm 0 W/m2
01:00 10.4 °C 7.8 °C 1021.9 hPa NNE 4.8 km/h 8 km/h 84% 0 mm 0 W/m2
01:10 10.6 °C 8 °C 1021.9 hPa NE 1.6 km/h 8 km/h 84% 0 mm 0 W/m2
01:20 10.6 °C 8 °C 1022.2 hPa Calm   4.8 km/h 84% 0 mm 0 W/m2
01:30 10.5 °C 7.9 °C 1021.9 hPa North 3.2 km/h 8 km/h 84% 0 mm 0 W/m2
01:40 10.7 °C 8.1 °C 1022.2 hPa NE 1.6 km/h 11.3 km/h 84% 0 mm 0 W/m2
01:50 10.6 °C 8.1 °C 1022.2 hPa Calm   4.8 km/h 84% 0 mm 0 W/m2
02:00 10.7 °C 8.1 °C 1022.2 hPa Calm   3.2 km/h 84% 0 mm 0 W/m2
02:10 10.7 °C 8.1 °C 1021.9 hPa Calm   8 km/h 84% 0 mm 0 W/m2
02:20 10.8 °C 8.2 °C 1022.2 hPa East 1.6 km/h 6.4 km/h 84% 0 mm 0 W/m2
02:30 10.7 °C 8.1 °C 1022.2 hPa SE 1.6 km/h 6.4 km/h 84% 0 mm 0 W/m2
02:40 10.8 °C 8.2 °C 1022.2 hPa Calm   3.2 km/h 84% 0 mm 0 W/m2
02:50 10.9 °C 8.3 °C 1021.9 hPa Calm   3.2 km/h 84% 0 mm 0 W/m2
03:00 10.9 °C 8.4 °C 1021.9 hPa Calm   4.8 km/h 84% 0 mm 0 W/m2
03:10 11 °C 8.4 °C 1021.9 hPa SSE 4.8 km/h 8 km/h 84% 0 mm 0 W/m2
03:20 10.9 °C 8.3 °C 1021.6 hPa East 3.2 km/h 4.8 km/h 84% 0 mm 0 W/m2
03:30 10.9 °C 8.4 °C 1021.6 hPa NNE 1.6 km/h 3.2 km/h 84% 0 mm 0 W/m2
03:40 10.9 °C 8.3 °C 1021.9 hPa South 3.2 km/h 6.4 km/h 84% 0 mm 0 W/m2
03:50 10.8 °C 8.2 °C 1021.9 hPa ESE 4.8 km/h 8 km/h 84% 0 mm 0 W/m2
04:00 10.8 °C 8.4 °C 1021.6 hPa NE 3.2 km/h 9.7 km/h 85% 0 mm 0 W/m2
04:10 10.9 °C 8.5 °C 1021.6 hPa NNE 3.2 km/h 9.7 km/h 85% 0 mm 0 W/m2
04:20 11.1 °C 8.7 °C 1021.6 hPa NE 4.8 km/h 12.9 km/h 85% 0 mm 0 W/m2
04:30 11 °C 8.6 °C 1021.6 hPa SSE 3.2 km/h 9.7 km/h 85% 0 mm 0 W/m2
04:40 11.1 °C 8.7 °C 1021.6 hPa North 3.2 km/h 11.3 km/h 85% 0 mm 0 W/m2
04:50 11.3 °C 8.7 °C 1021.6 hPa North 1.6 km/h 12.9 km/h 84% 0 mm 0 W/m2
05:00 11.4 °C 8.8 °C 1021.6 hPa North 4.8 km/h 11.3 km/h 84% 0 mm 0 W/m2
05:10 11.5 °C 8.9 °C 1021.6 hPa North 8 km/h 16.1 km/h 84% 0 mm 0 W/m2
05:20 11.6 °C 9 °C 1021.6 hPa North 8 km/h 19.3 km/h 84% 0 mm 0 W/m2
05:30 11.6 °C 8.8 °C 1021.6 hPa North 9.7 km/h 20.9 km/h 83% 0 mm 0 W/m2
05:40 11.6 °C 8.8 °C 1021.6 hPa North 9.7 km/h 19.3 km/h 83% 0 mm 0 W/m2
05:50 11.6 °C 8.8 °C 1021.6 hPa North 8 km/h 16.1 km/h 83% 0 mm 0 W/m2
06:00 11.5 °C 8.9 °C 1021.6 hPa North 8 km/h 20.9 km/h 84% 0 mm 0 W/m2
06:10 11.5 °C 8.9 °C 1021.2 hPa North 11.3 km/h 22.5 km/h 84% 0 mm 0 W/m2
06:20 11.4 °C 8.8 °C 1021.2 hPa North 9.7 km/h 20.9 km/h 84% 0 mm 0 W/m2
06:30 11.3 °C 8.7 °C 1021.2 hPa NNE 11.3 km/h 22.5 km/h 84% 0 mm 0 W/m2
06:40 11.2 °C 8.8 °C 1021.6 hPa North 12.9 km/h 20.9 km/h 85% 0 mm 2 W/m2
06:50 11.2 °C 8.8 °C 1021.6 hPa North 11.3 km/h 20.9 km/h 85% 0 mm 7 W/m2
07:00 11.1 °C 8.7 °C 1021.6 hPa North 8 km/h 20.9 km/h 85% 0 mm 12 W/m2
07:10 11.1 °C 8.7 °C 1021.9 hPa North 8 km/h 20.9 km/h 85% 0 mm 19 W/m2
07:20 11 °C 8.6 °C 1021.9 hPa North 9.7 km/h 20.9 km/h 85% 0 mm 26 W/m2
07:30 11 °C 8.6 °C 1022.2 hPa North 8 km/h 19.3 km/h 85% 0 mm 29 W/m2
07:40 11 °C 8.6 °C 1022.2 hPa North 9.7 km/h 20.9 km/h 85% 0 mm 32 W/m2
07:50 11 °C 8.6 °C 1022.2 hPa North 11.3 km/h 22.5 km/h 85% 0 mm 42 W/m2
08:00 11 °C 8.7 °C 1022.2 hPa North 9.7 km/h 20.9 km/h 86% 0 mm 58 W/m2
08:10 11 °C 8.7 °C 1022.2 hPa North 9.7 km/h 20.9 km/h 86% 0 mm 72 W/m2
08:20 11 °C 8.7 °C 1022.2 hPa North 8 km/h 20.9 km/h 86% 0 mm 96 W/m2
08:30 11 °C 8.7 °C 1022.2 hPa North 8 km/h 19.3 km/h 86% 0 mm 126 W/m2
08:40 11.1 °C 8.8 °C 1022.2 hPa North 12.9 km/h 19.3 km/h 86% 0 mm 141 W/m2
08:50 11.2 °C 8.9 °C 1022.2 hPa North 9.7 km/h 20.9 km/h 86% 0 mm 178 W/m2
09:00 11.3 °C 8.8 °C 1022.2 hPa North 8 km/h 20.9 km/h 85% 0 mm 180 W/m2
09:10 11.3 °C 8.9 °C 1022.2 hPa North 8 km/h 19.3 km/h 85% 0 mm 168 W/m2
09:20 11.4 °C 8.9 °C 1022.2 hPa North 8 km/h 19.3 km/h 85% 0 mm 185 W/m2
09:30 11.5 °C 9.1 °C 1022.2 hPa North 9.7 km/h 22.5 km/h 85% 0 mm 170 W/m2
09:40 11.4 °C 9 °C 1022.2 hPa North 9.7 km/h 22.5 km/h 85% 0 mm 172 W/m2
09:50 11.5 °C 9.1 °C 1022.6 hPa North 8 km/h 19.3 km/h 85% 0 mm 123 W/m2
10:00 11.5 °C 9.1 °C 1022.6 hPa North 8 km/h 22.5 km/h 85% 0 mm 112 W/m2
10:10 11.5 °C 9.1 °C 1022.6 hPa North 9.7 km/h 19.3 km/h 85% 0 mm 113 W/m2
10:20 11.5 °C 9.1 °C 1022.6 hPa North 9.7 km/h 19.3 km/h 85% 0 mm 106 W/m2
10:30 11.4 °C 9 °C 1022.6 hPa North 8 km/h 22.5 km/h 85% 0 mm 127 W/m2
10:40 11.4 °C 8.9 °C 1022.6 hPa North 12.9 km/h 20.9 km/h 85% 0 mm 103 W/m2
10:50 11.4 °C 8.9 °C 1022.6 hPa North 8 km/h 20.9 km/h 85% 0 mm 141 W/m2
11:00 11.5 °C 9.1 °C 1022.6 hPa North 11.3 km/h 22.5 km/h 85% 0 mm 158 W/m2
11:10 11.5 °C 9.1 °C 1022.6 hPa North 8 km/h 24.1 km/h 85% 0 mm 120 W/m2
11:20 11.5 °C 8.9 °C 1022.2 hPa North 9.7 km/h 20.9 km/h 84% 0 mm 103 W/m2
11:30 11.5 °C 8.9 °C 1022.2 hPa North 9.7 km/h 22.5 km/h 84% 0 mm 106 W/m2
11:40 11.7 °C 9.1 °C 1022.2 hPa North 8 km/h 22.5 km/h 84% 0 mm 138 W/m2
11:50 11.9 °C 9.3 °C 1022.2 hPa North 11.3 km/h 20.9 km/h 84% 0 mm 162 W/m2
12:00 12.2 °C 9.4 °C 1022.2 hPa North 3.2 km/h 19.3 km/h 83% 0 mm 126 W/m2
12:10 12.4 °C 9.2 °C 1022.2 hPa ESE 4.8 km/h 14.5 km/h 81% 0 mm 106 W/m2
12:20 12.7 °C 9.2 °C 1022.2 hPa NE 3.2 km/h 22.5 km/h 79% 0 mm 120 W/m2
12:30 12.9 °C 9.2 °C 1022.2 hPa NE 3.2 km/h 12.9 km/h 78% 0 mm 100 W/m2
12:40 13 °C 9.1 °C 1022.2 hPa East 9.7 km/h 22.5 km/h 77% 0 mm 119 W/m2
12:50 13 °C 9.3 °C 1022.2 hPa East 9.7 km/h 24.1 km/h 78% 0 mm 105 W/m2
13:00 13.1 °C 9.2 °C 1021.9 hPa ENE 8 km/h 33.8 km/h 77% 0 mm 124 W/m2
13:10 13.2 °C 9.4 °C 1021.9 hPa East 8 km/h 35.4 km/h 78% 0 mm 117 W/m2
13:20 13.3 °C 9.6 °C 1021.9 hPa NE 4.8 km/h 27.4 km/h 78% 0 mm 103 W/m2
13:30 13.4 °C 9.7 °C 1021.6 hPa ENE 3.2 km/h 19.3 km/h 78% 0 mm 112 W/m2
13:40 13.4 °C 10 °C 1021.6 hPa NNE 4.8 km/h 19.3 km/h 80% 0 mm 121 W/m2
13:50 13.5 °C 10.1 °C 1021.6 hPa NW 3.2 km/h 12.9 km/h 80% 0 mm 117 W/m2
14:00 13.5 °C 9.9 °C 1021.6 hPa NNE 1.6 km/h 16.1 km/h 79% 0 mm 108 W/m2
14:10 13.5 °C 10.1 °C 1021.6 hPa NNE 3.2 km/h 14.5 km/h 80% 0 mm 93 W/m2
14:20 13.5 °C 10.1 °C 1021.6 hPa NNE 3.2 km/h 16.1 km/h 80% 0 mm 100 W/m2
14:30 13.5 °C 10.1 °C 1021.6 hPa NNE 8 km/h 19.3 km/h 80% 0 mm 79 W/m2
14:40 13.4 °C 10.2 °C 1021.6 hPa North 4.8 km/h 12.9 km/h 81% 0 mm 76 W/m2
14:50 13.3 °C 10.7 °C 1021.6 hPa NNE 3.2 km/h 11.3 km/h 84% 0 mm 83 W/m2
15:00 13.1 °C 10.6 °C 1021.6 hPa NNE 8 km/h 11.3 km/h 85% 0 mm 77 W/m2
15:10 12.9 °C 10.4 °C 1021.9 hPa North 4.8 km/h 14.5 km/h 85% 0 mm 64 W/m2
15:20 12.8 °C 10.3 °C 1021.9 hPa North 4.8 km/h 14.5 km/h 85% 0 mm 77 W/m2
15:30 12.7 °C 10.4 °C 1021.6 hPa North 8 km/h 14.5 km/h 86% 0 mm 75 W/m2
15:40 12.6 °C 10.7 °C 1021.9 hPa North 1.6 km/h 11.3 km/h 88% 0 mm 33 W/m2
15:50 12.4 °C 10.4 °C 1021.9 hPa North 8 km/h 12.9 km/h 88% 0 mm 26 W/m2
16:00 12.3 °C 10.4 °C 1022.2 hPa North 4.8 km/h 16.1 km/h 88% 0 mm 31 W/m2
16:10 12.2 °C 10.4 °C 1022.2 hPa North 8 km/h 14.5 km/h 89% 0.25 mm 42 W/m2
16:20 12.2 °C 10.4 °C 1022.2 hPa NNE 3.2 km/h 9.7 km/h 89% 0 mm 42 W/m2
16:30 12.1 °C 10.5 °C 1022.2 hPa North 9.7 km/h 14.5 km/h 90% 0 mm 37 W/m2
16:40 12 °C 10.4 °C 1022.2 hPa NNE 3.2 km/h 14.5 km/h 90% 0 mm 27 W/m2
16:50 11.9 °C 10.3 °C 1022.2 hPa NW 3.2 km/h 9.7 km/h 90% 0 mm 26 W/m2
17:00 11.8 °C 10.2 °C 1022.2 hPa North 3.2 km/h 12.9 km/h 90% 0 mm 16 W/m2
17:10 11.8 °C 10.2 °C 1022.2 hPa North 4.8 km/h 12.9 km/h 90% 0 mm 13 W/m2
17:20 11.8 °C 10.2 °C 1022.2 hPa North 9.7 km/h 14.5 km/h 90% 0 mm 14 W/m2
17:30 11.7 °C 10.1 °C 1022.2 hPa North 8 km/h 14.5 km/h 90% 0 mm 6 W/m2
17:40 11.7 °C 10.1 °C 1022.2 hPa North 8 km/h 12.9 km/h 90% 0 mm 6 W/m2
17:50 11.6 °C 9.8 °C 1022.2 hPa North 4.8 km/h 12.9 km/h 89% 0 mm 4 W/m2
18:00 11.6 °C 9.7 °C 1022.2 hPa North 3.2 km/h 12.9 km/h 88% 0 mm 2 W/m2
18:10 11.6 °C 9.7 °C 1022.6 hPa North 4.8 km/h 14.5 km/h 88% 0 mm 0 W/m2
18:20 11.6 °C 9.3 °C 1022.6 hPa North 8 km/h 14.5 km/h 86% 0 mm 0 W/m2
18:30 11.6 °C 9.7 °C 1022.6 hPa NNE 3.2 km/h 14.5 km/h 88% 0 mm 0 W/m2
18:40 11.6 °C 9.3 °C 1022.6 hPa North 4.8 km/h 14.5 km/h 86% 0 mm 0 W/m2
18:50 11.7 °C 9.4 °C 1022.9 hPa North 4.8 km/h 9.7 km/h 86% 0 mm 0 W/m2
19:00 11.7 °C 9.4 °C 1022.9 hPa North 8 km/h 12.9 km/h 86% 0 mm 0 W/m2
19:10 11.7 °C 9.4 °C 1022.9 hPa North 4.8 km/h 9.7 km/h 86% 0 mm 0 W/m2
19:20 11.8 °C 9.3 °C 1022.9 hPa NNE 3.2 km/h 11.3 km/h 85% 0 mm 0 W/m2
19:30 11.8 °C 9.3 °C 1022.9 hPa NNE 3.2 km/h 12.9 km/h 85% 0 mm 0 W/m2
19:40 11.8 °C 9.3 °C 1022.9 hPa NNE 4.8 km/h 19.3 km/h 85% 0 mm 0 W/m2
19:50 11.9 °C 9.4 °C 1022.9 hPa NE 3.2 km/h 24.1 km/h 85% 0 mm 0 W/m2
20:00 11.9 °C 9.4 °C 1022.9 hPa North 3.2 km/h 22.5 km/h 85% 0 mm 0 W/m2
20:10 11.8 °C 9.2 °C 1023.2 hPa NNE 3.2 km/h 17.7 km/h 84% 0 mm 0 W/m2
20:20 11.9 °C 9.3 °C 1022.9 hPa North 1.6 km/h 11.3 km/h 84% 0 mm 0 W/m2
20:30 11.8 °C 9.2 °C 1022.9 hPa NNE 4.8 km/h 19.3 km/h 84% 0 mm 0 W/m2
20:40 11.8 °C 9.2 °C 1022.9 hPa North 3.2 km/h 14.5 km/h 84% 0 mm 0 W/m2
20:50 11.8 °C 9.2 °C 1023.2 hPa North 3.2 km/h 19.3 km/h 84% 0 mm 0 W/m2
21:00 11.8 °C 9.2 °C 1023.2 hPa NNE 4.8 km/h 19.3 km/h 84% 0 mm 0 W/m2
21:10 11.8 °C 9.2 °C 1023.2 hPa North 1.6 km/h 9.7 km/h 84% 0 mm 0 W/m2
21:20 11.7 °C 9.1 °C 1023.2 hPa NNW 9.7 km/h 19.3 km/h 84% 0 mm 0 W/m2
21:30 11.6 °C 9 °C 1023.2 hPa North 8 km/h 19.3 km/h 84% 0 mm 0 W/m2
21:40 11.6 °C 9.2 °C 1023.2 hPa North 8 km/h 12.9 km/h 85% 0 mm 0 W/m2
21:50 11.5 °C 9.1 °C 1023.2 hPa North 3.2 km/h 12.9 km/h 85% 0 mm 0 W/m2
22:00 11.5 °C 9.1 °C 1023.2 hPa North 4.8 km/h 12.9 km/h 85% 0 mm 0 W/m2
22:10 11.4 °C 8.9 °C 1023.2 hPa North 3.2 km/h 12.9 km/h 85% 0 mm 0 W/m2
22:20 11.4 °C 8.9 °C 1023.2 hPa North 8 km/h 12.9 km/h 85% 0 mm 0 W/m2
22:30 11.3 °C 9.1 °C 1023.2 hPa North 9.7 km/h 17.7 km/h 86% 0 mm 0 W/m2
22:40 11.2 °C 8.9 °C 1023.2 hPa North 9.7 km/h 19.3 km/h 86% 0 mm 0 W/m2
22:50 11.1 °C 8.8 °C 1023.2 hPa North 4.8 km/h 12.9 km/h 86% 0 mm 0 W/m2
23:00 11.1 °C 8.8 °C 1023.2 hPa North 8 km/h 11.3 km/h 86% 0 mm 0 W/m2
23:10 11.1 °C 8.8 °C 1023.2 hPa North 4.8 km/h 12.9 km/h 86% 0 mm 0 W/m2
23:20 11 °C 9.1 °C 1023.2 hPa North 8 km/h 20.9 km/h 88% 0 mm 0 W/m2
23:30 10.9 °C 9.2 °C 1023.2 hPa North 4.8 km/h 12.9 km/h 89% 0 mm 0 W/m2
23:40 10.8 °C 9.2 °C 1023.2 hPa North 4.8 km/h 12.9 km/h 90% 0 mm 0 W/m2
23:50 10.7 °C 9.1 °C 1023.2 hPa North 4.8 km/h 12.9 km/h 90% 0 mm 0 W/m2
Knjazevac, Serbia
Compliments of Weather Underground - 2 mb